CheckWX is a tool to help pilots better visualize weather data.  It is not intended as a substitute for an official pre-flight weather briefing.

15:47:50 UTC

KIAB METAR
Mc Connell AFB Airport
Wichita, Kansas, USA
Current

52 mins ago

KIAB 211456Z AUTO 21010KT 10SM CLR M05/M08 A3064 RMK AO2 SLP399 T10491078 53003
Observed
Feb-21 @ 14:56 UTC
Wind
  • 210° at 10 KTS
Visibility
10 SM
Flight Rules
VFR
Cloud Levels
  • Clear skies
Temperature
-5°C / 23°F
Dewpoint
-8°C / 18°F
Humidity
80%
Altimeter
30.64" Hg
Pressure
1037.62 hPa
Previous

2 hours ago

KIAB 211356Z AUTO 21006KT 10SM CLR M09/M11 A3064 RMK AO2 SLP400 T10941109
Observed
Feb-21 @ 13:56 UTC
Wind
  • 210° at 6 KTS
Visibility
10 SM
Flight Rules
VFR
Cloud Levels
  • Clear skies
Temperature
-9°C / 16°F
Dewpoint
-11°C / 12°F
Humidity
86%
Altimeter
30.64" Hg
Pressure
1037.62 hPa
Previous

3 hours ago

KIAB 211256Z AUTO 19003KT 10SM CLR M09/M11 A3062 RMK AO2 SLP393 T10931108
Observed
Feb-21 @ 12:56 UTC
Wind
  • 190° at 3 KTS
Visibility
10 SM
Flight Rules
VFR
Cloud Levels
  • Clear skies
Temperature
-9°C / 16°F
Dewpoint
-11°C / 12°F
Humidity
86%
Altimeter
30.62" Hg
Pressure
1036.92 hPa